sensor_id;sensor_type;location;lat;lon;timestamp;pressure;altitude;pressure_sealevel;temperature;humidity
27840;BME280;15207;42.182;24.308;2023-10-13T00:00:29;99741.09;;;9.55;100.00
27840;BME280;15207;42.182;24.308;2023-10-13T00:02:57;99737.91;;;9.62;100.00
27840;BME280;15207;42.182;24.308;2023-10-13T00:05:27;99740.03;;;9.57;98.79
27840;BME280;15207;42.182;24.308;2023-10-13T00:07:53;99736.53;;;9.57;98.01
27840;BME280;15207;42.182;24.308;2023-10-13T00:10:19;99743.25;;;9.62;98.50
27840;BME280;15207;42.182;24.308;2023-10-13T00:12:44;99739.84;;;9.73;97.37
27840;BME280;15207;42.182;24.308;2023-10-13T00:15:17;99740.38;;;9.78;95.50
27840;BME280;15207;42.182;24.308;2023-10-13T00:17:43;99737.72;;;9.78;94.40
27840;BME280;15207;42.182;24.308;2023-10-13T00:20:09;99730.75;;;9.76;94.51
27840;BME280;15207;42.182;24.308;2023-10-13T00:22:57;99721.97;;;9.61;91.50
27840;BME280;15207;42.182;24.308;2023-10-13T00:25:23;99722.38;;;9.55;89.63
27840;BME280;15207;42.182;24.308;2023-10-13T00:27:52;99726.97;;;9.39;87.25
27840;BME280;15207;42.182;24.308;2023-10-13T00:30:18;99717.72;;;9.31;87.25
27840;BME280;15207;42.182;24.308;2023-10-13T00:32:58;99718.19;;;9.37;88.19
27840;BME280;15207;42.182;24.308;2023-10-13T00:35:28;99722.75;;;9.22;87.49
27840;BME280;15207;42.182;24.308;2023-10-13T00:37:57;99728.84;;;9.24;88.66
27840;BME280;15207;42.182;24.308;2023-10-13T00:40:29;99723.41;;;9.26;89.75
27840;BME280;15207;42.182;24.308;2023-10-13T00:42:58;99722.31;;;9.16;89.22
27840;BME280;15207;42.182;24.308;2023-10-13T00:45:46;99723.38;;;9.13;88.80
27840;BME280;15207;42.182;24.308;2023-10-13T00:48:24;99724.00;;;9.17;88.77
27840;BME280;15207;42.182;24.308;2023-10-13T00:50:57;99719.66;;;9.29;91.38
27840;BME280;15207;42.182;24.308;2023-10-13T00:53:25;99705.56;;;9.26;92.63
27840;BME280;15207;42.182;24.308;2023-10-13T00:55:51;99716.09;;;9.15;91.49
27840;BME280;15207;42.182;24.308;2023-10-13T00:58:17;99708.88;;;9.30;90.15
27840;BME280;15207;42.182;24.308;2023-10-13T01:00:49;99714.91;;;9.06;90.91
27840;BME280;15207;42.182;24.308;2023-10-13T01:03:24;99703.69;;;9.14;91.88
27840;BME280;15207;42.182;24.308;2023-10-13T01:05:55;99708.00;;;8.89;91.77
27840;BME280;15207;42.182;24.308;2023-10-13T01:08:34;99707.97;;;8.47;95.05
27840;BME280;15207;42.182;24.308;2023-10-13T01:11:03;99704.81;;;8.69;95.30
27840;BME280;15207;42.182;24.308;2023-10-13T01:13:32;99697.66;;;8.70;96.23
27840;BME280;15207;42.182;24.308;2023-10-13T01:16:01;99699.47;;;8.69;97.24
27840;BME280;15207;42.182;24.308;2023-10-13T01:18:26;99700.94;;;8.46;99.51
27840;BME280;15207;42.182;24.308;2023-10-13T01:20:54;99697.84;;;8.67;99.95
27840;BME280;15207;42.182;24.308;2023-10-13T01:23:25;99695.69;;;8.44;99.74
27840;BME280;15207;42.182;24.308;2023-10-13T01:25:53;99697.63;;;8.28;100.00
27840;BME280;15207;42.182;24.308;2023-10-13T01:28:19;99703.44;;;8.34;99.36
27840;BME280;15207;42.182;24.308;2023-10-13T01:30:45;99703.81;;;8.28;99.44
27840;BME280;15207;42.182;24.308;2023-10-13T01:33:18;99702.94;;;8.42;99.33
27840;BME280;15207;42.182;24.308;2023-10-13T01:35:54;99697.94;;;8.65;98.13
27840;BME280;15207;42.182;24.308;2023-10-13T01:38:20;99702.16;;;8.55;96.41
27840;BME280;15207;42.182;24.308;2023-10-13T01:40:46;99695.19;;;8.67;96.54
27840;BME280;15207;42.182;24.308;2023-10-13T01:43:16;99688.03;;;8.67;96.61
27840;BME280;15207;42.182;24.308;2023-10-13T01:45:43;99691.00;;;8.48;97.48
27840;BME280;15207;42.182;24.308;2023-10-13T01:48:15;99697.78;;;8.54;97.56
27840;BME280;15207;42.182;24.308;2023-10-13T01:50:43;99701.78;;;8.61;98.26
27840;BME280;15207;42.182;24.308;2023-10-13T01:53:19;99694.28;;;8.81;99.03
27840;BME280;15207;42.182;24.308;2023-10-13T01:55:45;99696.50;;;9.02;98.28
27840;BME280;15207;42.182;24.308;2023-10-13T01:58:14;99690.13;;;9.17;97.26
27840;BME280;15207;42.182;24.308;2023-10-13T02:00:48;99694.66;;;9.30;97.03
27840;BME280;15207;42.182;24.308;2023-10-13T02:03:13;99693.88;;;9.15;95.25
27840;BME280;15207;42.182;24.308;2023-10-13T02:05:46;99695.94;;;9.24;94.20
27840;BME280;15207;42.182;24.308;2023-10-13T02:08:20;99690.19;;;9.43;93.80
27840;BME280;15207;42.182;24.308;2023-10-13T02:10:51;99700.75;;;9.32;92.09
27840;BME280;15207;42.182;24.308;2023-10-13T02:13:17;99697.66;;;9.38;89.79
27840;BME280;15207;42.182;24.308;2023-10-13T02:15:44;99699.31;;;9.13;89.18
27840;BME280;15207;42.182;24.308;2023-10-13T02:18:15;99702.97;;;9.12;89.86
27840;BME280;15207;42.182;24.308;2023-10-13T02:20:47;99705.97;;;8.93;90.81
27840;BME280;15207;42.182;24.308;2023-10-13T02:23:20;99708.00;;;8.89;91.32
27840;BME280;15207;42.182;24.308;2023-10-13T02:25:46;99707.31;;;8.58;93.05
27840;BME280;15207;42.182;24.308;2023-10-13T02:28:11;99712.25;;;8.50;95.81
27840;BME280;15207;42.182;24.308;2023-10-13T02:30:47;99709.22;;;8.56;97.06
27840;BME280;15207;42.182;24.308;2023-10-13T02:33:16;99707.50;;;8.55;95.65
27840;BME280;15207;42.182;24.308;2023-10-13T02:35:55;99707.22;;;8.45;96.21
27840;BME280;15207;42.182;24.308;2023-10-13T02:38:21;99701.22;;;8.56;94.01
27840;BME280;15207;42.182;24.308;2023-10-13T02:41:03;99701.03;;;8.59;93.62
27840;BME280;15207;42.182;24.308;2023-10-13T02:43:35;99701.22;;;8.56;93.07
27840;BME280;15207;42.182;24.308;2023-10-13T02:46:00;99702.94;;;8.57;93.00
27840;BME280;15207;42.182;24.308;2023-10-13T02:48:27;99698.75;;;8.53;91.87
27840;BME280;15207;42.182;24.308;2023-10-13T02:50:57;99692.81;;;8.62;90.89
27840;BME280;15207;42.182;24.308;2023-10-13T02:53:22;99696.34;;;8.63;90.85
27840;BME280;15207;42.182;24.308;2023-10-13T02:55:57;99694.84;;;8.58;91.43
27840;BME280;15207;42.182;24.308;2023-10-13T02:58:29;99699.28;;;8.72;92.42
27840;BME280;15207;42.182;24.308;2023-10-13T03:01:06;99699.53;;;8.82;91.73
27840;BME280;15207;42.182;24.308;2023-10-13T03:03:53;99690.16;;;8.90;92.80
27840;BME280;15207;42.182;24.308;2023-10-13T03:06:21;99696.28;;;9.05;92.71
27840;BME280;15207;42.182;24.308;2023-10-13T03:08:49;99691.16;;;9.02;92.46
27840;BME280;15207;42.182;24.308;2023-10-13T03:11:15;99688.56;;;8.87;91.84
27840;BME280;15207;42.182;24.308;2023-10-13T03:13:47;99690.16;;;8.90;90.56
27840;BME280;15207;42.182;24.308;2023-10-13T03:16:14;99688.75;;;8.84;90.78
27840;BME280;15207;42.182;24.308;2023-10-13T03:18:42;99686.06;;;8.84;90.88
27840;BME280;15207;42.182;24.308;2023-10-13T03:21:17;99680.59;;;8.72;91.62
27840;BME280;15207;42.182;24.308;2023-10-13T03:24:02;99679.53;;;8.75;92.70
27840;BME280;15207;42.182;24.308;2023-10-13T03:26:32;99679.44;;;8.20;94.07
27840;BME280;15207;42.182;24.308;2023-10-13T03:29:05;99678.47;;;8.21;95.89
27840;BME280;15207;42.182;24.308;2023-10-13T03:31:38;99680.00;;;8.25;96.37
27840;BME280;15207;42.182;24.308;2023-10-13T03:34:04;99671.22;;;8.23;96.42
27840;BME280;15207;42.182;24.308;2023-10-13T03:36:30;99668.75;;;8.20;97.26
27840;BME280;15207;42.182;24.308;2023-10-13T03:39:22;99663.25;;;8.09;97.54
27840;BME280;15207;42.182;24.308;2023-10-13T03:41:55;99659.75;;;8.36;97.35
27840;BME280;15207;42.182;24.308;2023-10-13T03:44:21;99661.19;;;8.41;97.33
27840;BME280;15207;42.182;24.308;2023-10-13T03:46:48;99655.34;;;8.49;97.80
27840;BME280;15207;42.182;24.308;2023-10-13T03:49:15;99669.75;;;8.61;97.08
27840;BME280;15207;42.182;24.308;2023-10-13T03:51:46;99671.97;;;8.54;95.50
27840;BME280;15207;42.182;24.308;2023-10-13T03:54:13;99668.25;;;8.28;97.37
27840;BME280;15207;42.182;24.308;2023-10-13T03:56:42;99661.50;;;8.22;98.96
27840;BME280;15207;42.182;24.308;2023-10-13T03:59:10;99656.16;;;8.22;99.64
27840;BME280;15207;42.182;24.308;2023-10-13T04:01:44;99666.56;;;7.98;100.00
27840;BME280;15207;42.182;24.308;2023-10-13T04:04:28;99671.41;;;7.62;100.00
27840;BME280;15207;42.182;24.308;2023-10-13T04:07:03;99669.00;;;7.43;100.00
27840;BME280;15207;42.182;24.308;2023-10-13T04:09:38;99672.59;;;7.27;100.00
27840;BME280;15207;42.182;24.308;2023-10-13T04:12:08;99671.88;;;7.54;100.00
27840;BME280;15207;42.182;24.308;2023-10-13T04:14:40;99672.69;;;7.71;100.00
27840;BME280;15207;42.182;24.308;2023-10-13T04:17:18;99667.63;;;7.80;100.00
27840;BME280;15207;42.182;24.308;2023-10-13T04:19:55;99665.44;;;8.02;100.00
27840;BME280;15207;42.182;24.308;2023-10-13T04:22:42;99675.50;;;8.26;100.00
27840;BME280;15207;42.182;24.308;2023-10-13T04:28:01;99683.88;;;8.34;100.00
27840;BME280;15207;42.182;24.308;2023-10-13T04:30:48;99678.91;;;8.42;100.00
27840;BME280;15207;42.182;24.308;2023-10-13T04:33:32;99680.22;;;8.50;100.00
27840;BME280;15207;42.182;24.308;2023-10-13T04:36:13;99686.84;;;8.58;100.00
27840;BME280;15207;42.182;24.308;2023-10-13T04:38:48;99679.75;;;8.57;100.00
27840;BME280;15207;42.182;24.308;2023-10-13T04:44:08;99675.03;;;8.76;95.02
27840;BME280;15207;42.182;24.308;2023-10-13T04:46:52;99679.81;;;8.70;94.70
27840;BME280;15207;42.182;24.308;2023-10-13T04:49:24;99680.44;;;8.46;94.98
27840;BME280;15207;42.182;24.308;2023-10-13T04:52:09;99670.91;;;8.57;93.41
27840;BME280;15207;42.182;24.308;2023-10-13T04:54:44;99678.50;;;8.63;92.99
27840;BME280;15207;42.182;24.308;2023-10-13T04:57:09;99675.09;;;8.61;92.58
27840;BME280;15207;42.182;24.308;2023-10-13T04:59:50;99664.28;;;8.63;93.14
27840;BME280;15207;42.182;24.308;2023-10-13T05:02:36;99660.00;;;8.45;95.80
27840;BME280;15207;42.182;24.308;2023-10-13T05:05:22;99647.72;;;8.43;96.22
27840;BME280;15207;42.182;24.308;2023-10-13T05:07:51;99653.94;;;8.43;96.23
27840;BME280;15207;42.182;24.308;2023-10-13T05:10:36;99662.22;;;8.53;96.16
27840;BME280;15207;42.182;24.308;2023-10-13T05:13:21;99667.09;;;8.61;95.08
27840;BME280;15207;42.182;24.308;2023-10-13T05:16:05;99660.13;;;8.58;95.46
27840;BME280;15207;42.182;24.308;2023-10-13T05:18:50;99656.13;;;8.79;94.79
27840;BME280;15207;42.182;24.308;2023-10-13T05:21:34;99650.28;;;8.86;95.11
27840;BME280;15207;42.182;24.308;2023-10-13T05:24:18;99656.19;;;8.92;94.21
27840;BME280;15207;42.182;24.308;2023-10-13T05:27:02;99659.69;;;8.79;94.91
27840;BME280;15207;42.182;24.308;2023-10-13T05:29:47;99670.59;;;8.47;100.00
27840;BME280;15207;42.182;24.308;2023-10-13T05:32:31;99671.50;;;8.33;100.00
27840;BME280;15207;42.182;24.308;2023-10-13T05:35:16;99677.56;;;8.50;100.00
27840;BME280;15207;42.182;24.308;2023-10-13T05:38:01;99675.94;;;8.62;100.00
27840;BME280;15207;42.182;24.308;2023-10-13T05:41:00;99672.56;;;9.00;100.00
27840;BME280;15207;42.182;24.308;2023-10-13T05:43:43;99684.78;;;9.17;100.00
27840;BME280;15207;42.182;24.308;2023-10-13T05:46:28;99674.59;;;9.50;100.00
27840;BME280;15207;42.182;24.308;2023-10-13T05:49:04;99682.81;;;9.73;99.22
27840;BME280;15207;42.182;24.308;2023-10-13T05:51:43;99692.97;;;9.93;99.32
27840;BME280;15207;42.182;24.308;2023-10-13T05:54:13;99679.59;;;10.19;97.18
27840;BME280;15207;42.182;24.308;2023-10-13T05:56:46;99682.59;;;10.65;94.93
27840;BME280;15207;42.182;24.308;2023-10-13T05:59:33;99693.50;;;11.00;92.72
27840;BME280;15207;42.182;24.308;2023-10-13T06:02:18;99698.81;;;11.24;91.35
27840;BME280;15207;42.182;24.308;2023-10-13T06:05:12;99706.31;;;11.43;90.80
27840;BME280;15207;42.182;24.308;2023-10-13T06:07:57;99705.53;;;11.77;88.99
27840;BME280;15207;42.182;24.308;2023-10-13T06:10:42;99702.84;;;11.77;88.29
27840;BME280;15207;42.182;24.308;2023-10-13T06:13:27;99710.19;;;11.86;88.23
27840;BME280;15207;42.182;24.308;2023-10-13T06:16:11;99704.44;;;11.80;88.34
27840;BME280;15207;42.182;24.308;2023-10-13T06:18:57;99718.13;;;11.76;88.84
27840;BME280;15207;42.182;24.308;2023-10-13T06:21:42;99710.56;;;11.82;88.31
27840;BME280;15207;42.182;24.308;2023-10-13T06:24:26;99708.63;;;11.95;87.34
27840;BME280;15207;42.182;24.308;2023-10-13T06:27:11;99717.91;;;12.02;86.56
27840;BME280;15207;42.182;24.308;2023-10-13T06:29:55;99716.13;;;12.14;86.37
27840;BME280;15207;42.182;24.308;2023-10-13T06:32:21;99715.00;;;12.28;85.85
27840;BME280;15207;42.182;24.308;2023-10-13T06:34:56;99728.31;;;12.41;85.18
27840;BME280;15207;42.182;24.308;2023-10-13T06:37:44;99724.75;;;12.64;84.56
27840;BME280;15207;42.182;24.308;2023-10-13T06:40:12;99723.88;;;12.75;84.52
27840;BME280;15207;42.182;24.308;2023-10-13T06:42:56;99710.34;;;12.98;83.11
27840;BME280;15207;42.182;24.308;2023-10-13T06:45:37;99703.69;;;13.25;82.18
27840;BME280;15207;42.182;24.308;2023-10-13T06:48:04;99705.47;;;13.35;81.42
27840;BME280;15207;42.182;24.308;2023-10-13T06:50:30;99705.03;;;13.52;80.44
27840;BME280;15207;42.182;24.308;2023-10-13T06:53:04;99701.56;;;13.61;79.61
27840;BME280;15207;42.182;24.308;2023-10-13T06:55:29;99703.31;;;13.93;77.95
27840;BME280;15207;42.182;24.308;2023-10-13T06:58:01;99696.94;;;13.94;78.32
27840;BME280;15207;42.182;24.308;2023-10-13T07:00:27;99697.38;;;14.31;76.10
27840;BME280;15207;42.182;24.308;2023-10-13T07:03:00;99709.47;;;14.46;75.44
27840;BME280;15207;42.182;24.308;2023-10-13T07:05:39;99703.91;;;14.79;73.27
27840;BME280;15207;42.182;24.308;2023-10-13T07:08:08;99703.22;;;14.87;72.24
27840;BME280;15207;42.182;24.308;2023-10-13T07:10:37;99701.97;;;14.91;72.33
27840;BME280;15207;42.182;24.308;2023-10-13T07:13:26;99703.25;;;14.97;72.56
27840;BME280;15207;42.182;24.308;2023-10-13T07:15:53;99697.00;;;15.16;71.49
27840;BME280;15207;42.182;24.308;2023-10-13T07:18:25;99692.31;;;15.47;69.94
27840;BME280;15207;42.182;24.308;2023-10-13T07:20:51;99704.22;;;15.65;68.34
27840;BME280;15207;42.182;24.308;2023-10-13T07:23:23;99691.38;;;15.86;67.51
27840;BME280;15207;42.182;24.308;2023-10-13T07:25:56;99690.81;;;15.83;68.52
27840;BME280;15207;42.182;24.308;2023-10-13T07:28:33;99689.00;;;15.73;67.83
27840;BME280;15207;42.182;24.308;2023-10-13T07:31:04;99687.84;;;15.76;68.47
27840;BME280;15207;42.182;24.308;2023-10-13T07:33:30;99692.91;;;16.09;67.61
27840;BME280;15207;42.182;24.308;2023-10-13T07:36:00;99692.84;;;16.19;67.80
27840;BME280;15207;42.182;24.308;2023-10-13T07:38:26;99689.22;;;16.38;66.51
27840;BME280;15207;42.182;24.308;2023-10-13T07:40:56;99687.13;;;16.96;62.66
27840;BME280;15207;42.182;24.308;2023-10-13T07:43:25;99694.31;;;17.15;61.86
27840;BME280;15207;42.182;24.308;2023-10-13T07:45:53;99691.25;;;17.00;62.41
27840;BME280;15207;42.182;24.308;2023-10-13T07:48:24;99695.13;;;17.16;61.95
27840;BME280;15207;42.182;24.308;2023-10-13T07:53:29;99684.50;;;17.59;60.17
27840;BME280;15207;42.182;24.308;2023-10-13T07:55:59;99682.72;;;17.68;59.04
27840;BME280;15207;42.182;24.308;2023-10-13T07:58:31;99682.50;;;18.14;57.55
27840;BME280;15207;42.182;24.308;2023-10-13T08:01:00;99669.38;;;18.36;55.28
27840;BME280;15207;42.182;24.308;2023-10-13T08:03:35;99667.41;;;18.46;56.10
27840;BME280;15207;42.182;24.308;2023-10-13T08:06:11;99674.75;;;18.62;54.87
27840;BME280;15207;42.182;24.308;2023-10-13T08:08:37;99660.03;;;18.82;54.32
27840;BME280;15207;42.182;24.308;2023-10-13T08:11:07;99662.59;;;19.00;53.30
27840;BME280;15207;42.182;24.308;2023-10-13T08:13:54;99655.66;;;19.64;51.32
27840;BME280;15207;42.182;24.308;2023-10-13T08:16:41;99661.72;;;19.91;50.18
27840;BME280;15207;42.182;24.308;2023-10-13T08:19:23;99649.19;;;20.30;48.83
27840;BME280;15207;42.182;24.308;2023-10-13T08:22:08;99648.41;;;20.53;47.79
27840;BME280;15207;42.182;24.308;2023-10-13T08:24:47;99643.31;;;20.09;48.76
27840;BME280;15207;42.182;24.308;2023-10-13T08:27:13;99645.09;;;19.86;48.33
27840;BME280;15207;42.182;24.308;2023-10-13T08:29:40;99640.47;;;19.86;49.67
27840;BME280;15207;42.182;24.308;2023-10-13T08:32:34;99641.81;;;20.07;48.77
27840;BME280;15207;42.182;24.308;2023-10-13T08:35:01;99635.88;;;20.03;48.18
27840;BME280;15207;42.182;24.308;2023-10-13T08:37:31;99632.28;;;20.11;48.69
27840;BME280;15207;42.182;24.308;2023-10-13T08:40:13;99634.91;;;20.36;48.20
27840;BME280;15207;42.182;24.308;2023-10-13T08:42:57;99622.53;;;20.25;48.05
27840;BME280;15207;42.182;24.308;2023-10-13T08:45:28;99623.91;;;20.53;46.83
27840;BME280;15207;42.182;24.308;2023-10-13T08:50:53;99619.53;;;20.75;46.85
27840;BME280;15207;42.182;24.308;2023-10-13T08:53:27;99624.66;;;21.01;46.66
27840;BME280;15207;42.182;24.308;2023-10-13T08:58:36;99610.75;;;21.35;45.20
27840;BME280;15207;42.182;24.308;2023-10-13T09:01:20;99609.94;;;21.49;45.41
27840;BME280;15207;42.182;24.308;2023-10-13T09:04:09;99616.72;;;21.69;44.03
27840;BME280;15207;42.182;24.308;2023-10-13T09:14:42;99601.81;;;22.62;41.53
27840;BME280;15207;42.182;24.308;2023-10-13T09:17:12;99598.19;;;22.76;41.24
27840;BME280;15207;42.182;24.308;2023-10-13T09:19:52;99603.25;;;23.01;40.50
27840;BME280;15207;42.182;24.308;2023-10-13T09:22:28;99601.69;;;22.92;39.95
27840;BME280;15207;42.182;24.308;2023-10-13T09:25:03;99602.22;;;22.80;39.56
27840;BME280;15207;42.182;24.308;2023-10-13T09:27:39;99598.41;;;23.03;40.13
27840;BME280;15207;42.182;24.308;2023-10-13T09:30:05;99603.66;;;23.48;39.57
27840;BME280;15207;42.182;24.308;2023-10-13T09:32:47;99600.13;;;23.55;38.46
27840;BME280;15207;42.182;24.308;2023-10-13T09:35:18;99602.53;;;23.71;39.01
27840;BME280;15207;42.182;24.308;2023-10-13T09:37:49;99608.38;;;23.61;38.12
27840;BME280;15207;42.182;24.308;2023-10-13T09:40:16;99606.03;;;23.58;38.08
27840;BME280;15207;42.182;24.308;2023-10-13T09:43:01;99596.22;;;23.71;38.26
27840;BME280;15207;42.182;24.308;2023-10-13T09:45:34;99596.63;;;23.68;37.91
27840;BME280;15207;42.182;24.308;2023-10-13T09:48:12;99599.31;;;23.61;38.42
27840;BME280;15207;42.182;24.308;2023-10-13T09:50:48;99594.56;;;23.70;37.86
27840;BME280;15207;42.182;24.308;2023-10-13T09:53:14;99591.63;;;23.78;38.11
27840;BME280;15207;42.182;24.308;2023-10-13T09:55:47;99587.06;;;23.85;38.08
27840;BME280;15207;42.182;24.308;2023-10-13T09:58:14;99584.34;;;23.85;37.80
27840;BME280;15207;42.182;24.308;2023-10-13T10:00:52;99587.50;;;23.89;38.09
27840;BME280;15207;42.182;24.308;2023-10-13T10:03:45;99577.00;;;23.93;37.46
27840;BME280;15207;42.182;24.308;2023-10-13T10:06:22;99572.53;;;23.85;36.79
27840;BME280;15207;42.182;24.308;2023-10-13T10:09:04;99577.34;;;24.11;37.81
27840;BME280;15207;42.182;24.308;2023-10-13T10:12:05;99573.38;;;24.21;37.54
27840;BME280;15207;42.182;24.308;2023-10-13T10:17:40;99561.56;;;24.20;37.21
27840;BME280;15207;42.182;24.308;2023-10-13T10:20:07;99555.03;;;24.14;37.22
27840;BME280;15207;42.182;24.308;2023-10-13T10:22:40;99542.81;;;24.17;37.14
27840;BME280;15207;42.182;24.308;2023-10-13T10:25:10;99551.16;;;24.58;37.27
27840;BME280;15207;42.182;24.308;2023-10-13T10:28:00;99548.44;;;24.58;36.21
27840;BME280;15207;42.182;24.308;2023-10-13T10:30:26;99536.00;;;24.48;36.79
27840;BME280;15207;42.182;24.308;2023-10-13T10:32:55;99541.06;;;24.72;36.84
27840;BME280;15207;42.182;24.308;2023-10-13T10:35:33;99542.09;;;24.50;36.42
27840;BME280;15207;42.182;24.308;2023-10-13T10:38:12;99529.25;;;24.51;37.07
27840;BME280;15207;42.182;24.308;2023-10-13T10:43:18;99536.22;;;24.74;36.49
27840;BME280;15207;42.182;24.308;2023-10-13T10:45:47;99535.84;;;24.97;35.33
27840;BME280;15207;42.182;24.308;2023-10-13T10:48:16;99525.72;;;24.98;35.17
27840;BME280;15207;42.182;24.308;2023-10-13T10:50:53;99526.13;;;24.94;35.83
27840;BME280;15207;42.182;24.308;2023-10-13T10:53:22;99520.25;;;24.84;36.38
27840;BME280;15207;42.182;24.308;2023-10-13T10:56:07;99529.09;;;25.00;35.89
27840;BME280;15207;42.182;24.308;2023-10-13T10:58:48;99519.00;;;25.07;35.72
27840;BME280;15207;42.182;24.308;2023-10-13T11:01:14;99523.41;;;25.15;35.95
27840;BME280;15207;42.182;24.308;2023-10-13T11:06:26;99508.38;;;25.51;34.08
27840;BME280;15207;42.182;24.308;2023-10-13T11:09:05;99510.06;;;25.59;34.09
27840;BME280;15207;42.182;24.308;2023-10-13T11:11:53;99502.28;;;25.49;33.89
27840;BME280;15207;42.182;24.308;2023-10-13T11:14:22;99504.81;;;25.44;33.81
27840;BME280;15207;42.182;24.308;2023-10-13T11:16:49;99502.28;;;25.56;33.97
27840;BME280;15207;42.182;24.308;2023-10-13T11:19:37;99500.16;;;25.58;34.17
27840;BME280;15207;42.182;24.308;2023-10-13T11:22:16;99490.25;;;25.64;34.13
27840;BME280;15207;42.182;24.308;2023-10-13T11:25:05;99492.28;;;25.75;33.90
27840;BME280;15207;42.182;24.308;2023-10-13T11:27:40;99485.31;;;25.79;33.36
27840;BME280;15207;42.182;24.308;2023-10-13T11:30:11;99481.47;;;25.94;33.80
27840;BME280;15207;42.182;24.308;2023-10-13T11:32:41;99477.69;;;25.88;33.97
27840;BME280;15207;42.182;24.308;2023-10-13T11:35:10;99475.63;;;26.15;33.50
27840;BME280;15207;42.182;24.308;2023-10-13T11:37:46;99472.16;;;25.95;33.44
27840;BME280;15207;42.182;24.308;2023-10-13T11:40:21;99472.81;;;25.90;33.99
27840;BME280;15207;42.182;24.308;2023-10-13T11:43:06;99473.81;;;26.02;33.41
27840;BME280;15207;42.182;24.308;2023-10-13T11:45:39;99474.88;;;26.01;33.16
27840;BME280;15207;42.182;24.308;2023-10-13T11:48:18;99469.78;;;26.05;33.35
27840;BME280;15207;42.182;24.308;2023-10-13T11:50:59;99466.38;;;26.10;33.16
27840;BME280;15207;42.182;24.308;2023-10-13T11:53:24;99463.56;;;26.23;33.39
27840;BME280;15207;42.182;24.308;2023-10-13T11:55:52;99465.44;;;26.30;32.56
27840;BME280;15207;42.182;24.308;2023-10-13T11:58:18;99460.81;;;26.23;31.57
27840;BME280;15207;42.182;24.308;2023-10-13T12:00:43;99455.31;;;26.30;31.23
27840;BME280;15207;42.182;24.308;2023-10-13T12:03:28;99457.91;;;26.50;31.75
27840;BME280;15207;42.182;24.308;2023-10-13T12:06:12;99445.78;;;26.58;31.27
27840;BME280;15207;42.182;24.308;2023-10-13T12:08:56;99458.63;;;26.39;31.84
27840;BME280;15207;42.182;24.308;2023-10-13T12:11:36;99452.03;;;26.47;31.86
27840;BME280;15207;42.182;24.308;2023-10-13T12:14:04;99455.31;;;26.56;31.06
27840;BME280;15207;42.182;24.308;2023-10-13T12:16:45;99449.56;;;26.64;30.52
27840;BME280;15207;42.182;24.308;2023-10-13T12:19:26;99451.66;;;26.69;29.95
27840;BME280;15207;42.182;24.308;2023-10-13T12:21:54;99449.94;;;26.67;30.47
27840;BME280;15207;42.182;24.308;2023-10-13T12:24:20;99447.03;;;26.62;29.79
27840;BME280;15207;42.182;24.308;2023-10-13T12:27:04;99452.59;;;26.81;29.71
27840;BME280;15207;42.182;24.308;2023-10-13T12:29:49;99452.16;;;26.84;29.24
27840;BME280;15207;42.182;24.308;2023-10-13T12:32:17;99452.53;;;26.88;29.99
27840;BME280;15207;42.182;24.308;2023-10-13T12:34:49;99452.09;;;26.91;28.53
27840;BME280;15207;42.182;24.308;2023-10-13T12:37:30;99449.00;;;26.80;29.11
27840;BME280;15207;42.182;24.308;2023-10-13T12:40:10;99446.03;;;26.82;28.33
27840;BME280;15207;42.182;24.308;2023-10-13T12:42:55;99445.09;;;26.88;28.49
27840;BME280;15207;42.182;24.308;2023-10-13T12:45:43;99444.50;;;26.86;28.10
27840;BME280;15207;42.182;24.308;2023-10-13T12:48:27;99444.28;;;26.88;28.17
27840;BME280;15207;42.182;24.308;2023-10-13T12:51:12;99443.59;;;26.92;28.67
27840;BME280;15207;42.182;24.308;2023-10-13T12:53:52;99442.38;;;26.88;29.56
27840;BME280;15207;42.182;24.308;2023-10-13T12:56:20;99437.84;;;26.75;28.77
27840;BME280;15207;42.182;24.308;2023-10-13T12:58:55;99443.59;;;26.74;29.13
27840;BME280;15207;42.182;24.308;2023-10-13T13:01:22;99444.28;;;26.88;29.16
27840;BME280;15207;42.182;24.308;2023-10-13T13:03:48;99439.63;;;26.88;28.74
27840;BME280;15207;42.182;24.308;2023-10-13T13:06:22;99441.81;;;26.79;28.90
27840;BME280;15207;42.182;24.308;2023-10-13T13:11:17;99433.69;;;26.91;28.67
27840;BME280;15207;42.182;24.308;2023-10-13T13:13:42;99439.88;;;26.87;28.43
27840;BME280;15207;42.182;24.308;2023-10-13T13:16:09;99433.28;;;26.95;28.31
27840;BME280;15207;42.182;24.308;2023-10-13T13:18:34;99440.66;;;26.94;28.07
27840;BME280;15207;42.182;24.308;2023-10-13T13:21:00;99436.97;;;26.82;28.47
27840;BME280;15207;42.182;24.308;2023-10-13T13:23:27;99441.59;;;26.81;28.06
27840;BME280;15207;42.182;24.308;2023-10-13T13:25:53;99435.25;;;26.80;27.97
27840;BME280;15207;42.182;24.308;2023-10-13T13:28:19;99437.84;;;26.75;28.32
27840;BME280;15207;42.182;24.308;2023-10-13T13:30:44;99448.91;;;26.69;28.61
27840;BME280;15207;42.182;24.308;2023-10-13T13:33:11;99439.09;;;26.54;28.93
27840;BME280;15207;42.182;24.308;2023-10-13T13:35:40;99443.31;;;26.57;28.85
27840;BME280;15207;42.182;24.308;2023-10-13T13:38:08;99441.59;;;26.56;28.53
27840;BME280;15207;42.182;24.308;2023-10-13T13:40:47;99439.75;;;26.49;28.77
27840;BME280;15207;42.182;24.308;2023-10-13T13:43:22;99439.75;;;26.49;28.66
27840;BME280;15207;42.182;24.308;2023-10-13T13:45:59;99439.19;;;26.40;28.79
27840;BME280;15207;42.182;24.308;2023-10-13T13:48:28;99440.91;;;26.35;29.15
27840;BME280;15207;42.182;24.308;2023-10-13T13:50:54;99441.81;;;26.28;29.78
27840;BME280;15207;42.182;24.308;2023-10-13T13:53:30;99439.28;;;26.20;29.65
27840;BME280;15207;42.182;24.308;2023-10-13T13:56:03;99440.97;;;26.28;29.89
27840;BME280;15207;42.182;24.308;2023-10-13T13:58:31;99429.16;;;26.27;29.50
27840;BME280;15207;42.182;24.308;2023-10-13T14:01:01;99427.03;;;26.30;29.98